Accueil
METAR-TAF:

METAR-TAF

Aéroports :

Aéroport d'Antioche

Antioche, Turquie

latitude: 36-21-46N, longitude: 36-16-56E, altitude: 1950 m

Observation

Le bulletin a été fait il y a 54 minutes, à 07:50 UTC
Vent 18 kt de sud-ouest
Température 24°C
Humidité 38%
Pression 1013 hPa
Visibilité 10 km ou plus
Nuages épars à une hauteur de 4000 ft

METAR: LTDA 290750Z 22018KT 9999 SCT040 24/09 Q1013 NOSIG

Heure: 11:44 (08:44 UTC)

Prévision

Le bulletin a été fait il y a 4 heures et 4 minutes, à 04:40 UTC
Prévision valable du 29 à 06 UTC au 29 à 15 UTC
Vent 15 kt de ouest/sud-ouest
Visibilité 10 km ou plus
Nuages épars à une hauteur de 4000 ft
Temporairement
du 29 à 06 UTC au 29 à 09 UTC
Vent 15 kt de ouest/sud-ouest avec des rafales jusqu'à 25 kt
Evoluant progressivement
du 29 à 09 UTC au 29 à 12 UTC
Nuages fragmentés à une hauteur de 3500 ft

TAF: LTDA 290440Z 2906/2915 24015KT 9999 SCT040 TEMPO 2906/2909 24015G25KT BECMG 2909/2912 BKN035

Observations et prévisions météorologiques de plus de 4000 aéroports (messages METAR et TAF).

Les stations disponibles sont représentées par des disques jaunes et rouges sur la carte.

Passer la souris dessus pour voir le nom de la station.

Cliquer dessus pour voir les observations et prévisions météorologiques.

Pour changer de carte: cliquez sur les boutons verts avec une croix noire pour zoomer, sur le bouton vert avec un tiret pour effectuer un zoom arrière, ou sur les flèches vertes pour les cartes adjacentes.


METAR-TAF: